KFFT

Capital City Airport

Frankfort, Kentucky, USA
METAR KFFT 181950Z AUTO 23010KT 3SM BR OVC007 09/07 A3004 RMK AO2 CIG 004V010 SLP173 T00890072
Observed Flight Rules
Dec-18 @ 19:50 UTC (23 minutes ago) Instrument Flight Rules
Wind Visibility Clouds Conditions
230° at 10 knots 3 miles
  • Overcast at 700' AGL
  • Mist
Temperatures Readings
Current 9°C / 48°F
Dewpoint 7°C / 45°F
Humidity 87%
Altimeter 30.04" Hg
Pressure 1017.3 hPa
Elevation 236
METAR KFFT 181950Z AUTO 23010KT 3SM BR OVC007 09/07 A3004 RMK AO2 CIG 004V010 SLP173 T00890072
Observed Flight Rules
Dec-18 @ 19:50 UTC
(23 minutes ago)
IFR
Wind Visibility
230° at 10 knots 3 miles
Clouds
  • Overcast at 700' AGL
Conditions
  • Mist
Temperature Dewpoint
9°C / 48°F 7°C / 45°F
Humidity Altimeter Pressure
87% 30.04" Hg 1017.3 hPa